Main page
METAR-TAF:

METAR-TAF

Airports :

Ouagadougou, Burkina Faso

Ouagadougou Airport

latitude: 12-21N, longitude: 001-31W, elevation: 316 m

Current weather observation

The report was made 1 hour and 6 minutes ago, at 16:00 UTC
Wind 5 kt from the North, varying between North/Northwest and Northeast
Temperature 38°C
Humidity 38%
Pressure 1007 hPa
Visibility 10 km or more
no clouds below 1500 m and no cumulonimbus

METAR: DFFD 231600Z 35005KT 330V050 CAVOK 38/21 Q1007 NOSIG

Time: 17:06 (17:06 UTC)

Forecast

The report was made 6 hours and 6 minutes ago, at 11:00 UTC
Forecast valid from 23 at 12 UTC to 24 at 18 UTC
Wind 8 kt from the West
Visibility 10 km or more
no clouds below 1500 m and no cumulonimbus
Probability 30% :
Temporary
from 23 at 16 UTC to 23 at 24 UTC
Few clouds at a height of 2000 ft
Few clouds at a height of 3600 ft, Cumulonimbus.
thunderstorm

TAF: DFFD 231100Z 2312/2418 28008KT CAVOK PROB30 TEMPO 2316/2324 TS FEW020 FEW036CB

Weather observations and forecasts of more than 4000 airports (METAR and TAF reports).

The available stations are represented by yellow and red dots on the map.

Hover mouse over dot to see the name of the station.

Then click to see weather observations and forecasts.

To change the map : click on the green buttons with a black cross to zoom in, on the green button with a dash to zoom out, or on the green arrows for adjacent maps.


METAR-TAF: